Time;durP1;ratioP1;P1;durP2;ratioP2;P2;SDS_P1;SDS_P2;PMS_P1;PMS_P2;Temp;Humidity;BMP_temperature;BMP_pressure;BME280_temperature;BME280_humidity;BME280_pressure;Samples;Min_cycle;Max_cycle;Signal;HPM_P1;HPM_P2
2021/04/27 00:02:54;;;;;;;6.63;5.70;;;1.60;99.90;;;;;;6235898;28;20238;-69
2021/04/27 00:05:56;;;;;;;6.47;5.17;;;1.50;99.90;;;;;;6197436;28;20236;-69
2021/04/27 00:08:58;;;;;;;6.80;4.83;;;1.50;99.90;;;;;;6230679;28;20263;-69
2021/04/27 00:12:00;;;;;;;7.73;5.00;;;1.50;99.90;;;;;;6229311;28;20235;-69
2021/04/27 00:15:05;;;;;;;6.53;5.60;;;1.50;99.90;;;;;;6229587;28;20742;-69
2021/04/27 00:18:07;;;;;;;7.73;5.23;;;1.60;99.90;;;;;;6211817;28;20215;-69
2021/04/27 00:21:09;;;;;;;7.03;5.20;;;1.60;99.90;;;;;;6221425;28;20210;-69
2021/04/27 00:24:11;;;;;;;7.20;4.90;;;1.50;99.90;;;;;;6261303;28;20288;-69
2021/04/27 00:27:13;;;;;;;8.30;4.57;;;1.50;99.90;;;;;;6260894;28;20694;-69
2021/04/27 00:30:17;;;;;;;6.60;5.67;;;1.40;99.90;;;;;;6244571;28;20662;-69
2021/04/27 00:33:19;;;;;;;6.97;5.00;;;1.40;99.90;;;;;;6246227;28;20214;-69
2021/04/27 00:36:21;;;;;;;4.97;4.40;;;1.40;99.90;;;;;;6263085;28;20195;-69
2021/04/27 00:39:23;;;;;;;6.93;4.93;;;1.40;99.90;;;;;;6259905;28;20233;-70
2021/04/27 00:42:33;;;;;;;8.13;4.50;;;1.30;99.90;;;;;;6268461;28;20238;-69
2021/04/27 00:45:35;;;;;;;7.50;4.97;;;1.30;99.90;;;;;;6252436;28;20309;-69
2021/04/27 00:48:37;;;;;;;6.43;5.40;;;1.30;99.90;;;;;;6254209;28;20646;-69
2021/04/27 00:51:39;;;;;;;9.60;4.83;;;1.20;99.90;;;;;;6255701;28;20239;-69
2021/04/27 00:54:41;;;;;;;9.43;5.57;;;1.20;99.90;;;;;;6240352;28;20268;-69
2021/04/27 00:57:43;;;;;;;6.30;5.63;;;1.10;99.90;;;;;;6241280;28;20228;-69
2021/04/27 01:00:45;;;;;;;7.00;5.07;;;1.10;99.90;;;;;;6270406;28;20597;-70
2021/04/27 01:03:47;;;;;;;7.27;5.33;;;1.00;99.90;;;;;;6216844;28;20234;-69
2021/04/27 01:06:50;;;;;;;6.40;5.20;;;1.00;99.90;;;;;;6234557;28;20244;-69
2021/04/27 01:09:58;;;;;;;7.00;5.27;;;1.10;99.90;;;;;;6234686;28;20243;-69
2021/04/27 01:13:07;;;;;;;7.30;5.67;;;1.10;99.90;;;;;;6215918;28;20240;-69
2021/04/27 01:16:12;;;;;;;9.17;5.93;;;1.20;99.90;;;;;;6233306;28;20240;-69
2021/04/27 01:19:17;;;;;;;6.63;5.20;;;1.10;99.90;;;;;;6239676;28;20234;-69
2021/04/27 01:23:04;;;;;;;6.43;5.50;;;1.10;99.90;;;;;;6240290;28;20235;-69
2021/04/27 01:26:19;;;;;;;6.50;5.17;;;1.10;99.90;;;;;;6232870;28;20292;-69
2021/04/27 01:29:29;;;;;;;8.17;5.07;;;1.00;99.90;;;;;;6239919;28;20239;-69
2021/04/27 01:32:32;;;;;;;7.67;5.20;;;1.00;99.90;;;;;;6241577;28;20259;-69
2021/04/27 01:35:36;;;;;;;8.03;5.40;;;1.00;99.90;;;;;;6216923;28;20322;-69
2021/04/27 01:38:43;;;;;;;7.07;5.10;;;1.00;99.90;;;;;;6200364;28;20241;-70
2021/04/27 01:41:47;;;;;;;7.63;5.17;;;1.00;99.90;;;;;;6234023;28;20235;-69
2021/04/27 01:44:49;;;;;;;8.03;5.67;;;1.00;99.90;;;;;;6214969;28;20285;-70
2021/04/27 01:47:51;;;;;;;8.07;5.63;;;1.00;99.90;;;;;;6229950;28;20231;-69
2021/04/27 01:50:55;;;;;;;6.80;5.03;;;0.90;99.90;;;;;;6239856;28;20231;-70
2021/04/27 01:54:15;;;;;;;7.77;4.83;;;0.90;99.90;;;;;;6258018;28;20219;-70
2021/04/27 01:57:19;;;;;;;6.90;5.60;;;0.90;99.90;;;;;;6224458;28;20207;-69
2021/04/27 02:00:24;;;;;;;7.07;5.23;;;0.90;99.90;;;;;;6223465;28;20699;-69
2021/04/27 02:03:28;;;;;;;7.77;5.40;;;0.90;99.90;;;;;;6233497;28;20577;-70
2021/04/27 02:06:42;;;;;;;5.23;4.67;;;0.90;99.90;;;;;;6232999;28;20259;-69
2021/04/27 02:09:45;;;;;;;6.77;4.70;;;0.90;99.90;;;;;;6216044;28;20693;-69
2021/04/27 02:13:19;;;;;;;6.90;4.73;;;0.80;99.90;;;;;;6237305;28;20607;-69
2021/04/27 02:16:45;;;;;;;10.70;6.10;;;0.80;99.90;;;;;;6216124;28;20248;-69
2021/04/27 02:19:48;;;;;;;6.50;5.63;;;0.70;99.90;;;;;;6243348;28;20233;-69
2021/04/27 02:23:16;;;;;;;6.20;5.10;;;0.70;99.90;;;;;;6214640;28;20231;-69
2021/04/27 02:26:38;;;;;;;6.20;4.87;;;0.70;99.90;;;;;;6241372;28;20238;-69
2021/04/27 02:29:54;;;;;;;6.73;4.87;;;0.70;99.90;;;;;;6241783;28;20252;-69
2021/04/27 02:32:56;;;;;;;7.60;4.93;;;0.70;99.90;;;;;;6220894;28;20602;-69
2021/04/27 02:35:59;;;;;;;6.03;5.03;;;0.70;99.90;;;;;;6214113;28;20239;-69
2021/04/27 02:39:18;;;;;;;11.20;5.60;;;0.60;99.90;;;;;;6213714;28;20235;-70
2021/04/27 02:42:21;;;;;;;7.17;5.33;;;0.60;99.90;;;;;;6198745;28;20207;-69
2021/04/27 02:45:50;;;;;;;11.73;6.40;;;0.60;99.90;;;;;;6230443;28;20261;-69
2021/04/27 02:49:10;;;;;;;8.17;5.20;;;0.60;99.90;;;;;;6231184;28;20297;-70
2021/04/27 02:52:18;;;;;;;7.03;5.30;;;0.60;99.90;;;;;;6215627;28;20736;-69
2021/04/27 02:55:29;;;;;;;7.07;5.53;;;0.50;99.90;;;;;;6216120;28;20248;-70
2021/04/27 02:58:31;;;;;;;11.80;6.77;;;0.50;99.90;;;;;;6213975;28;20262;-69
2021/04/27 03:01:35;;;;;;;8.27;5.63;;;0.50;99.90;;;;;;6224991;28;20230;-69
2021/04/27 03:04:41;;;;;;;9.77;6.03;;;0.40;99.90;;;;;;6257941;28;20231;-70
2021/04/27 03:07:48;;;;;;;7.93;6.70;;;0.40;99.90;;;;;;6256118;28;20231;-70
2021/04/27 03:10:53;;;;;;;9.97;7.33;;;0.30;99.90;;;;;;6254951;28;20235;-70
2021/04/27 03:13:56;;;;;;;10.30;7.60;;;0.30;99.90;;;;;;6220884;28;20268;-69
2021/04/27 03:16:59;;;;;;;8.77;6.43;;;0.30;99.90;;;;;;6256294;28;20234;-69
2021/04/27 03:20:01;;;;;;;9.97;6.87;;;0.20;99.90;;;;;;6256424;28;20290;-69
2021/04/27 03:23:13;;;;;;;10.27;7.13;;;0.20;99.90;;;;;;6238078;28;20318;-70
2021/04/27 03:26:15;;;;;;;9.27;7.53;;;0.20;99.90;;;;;;6255330;28;20281;-70
2021/04/27 03:29:41;;;;;;;9.47;7.63;;;0.20;99.90;;;;;;6223569;28;20270;-70
2021/04/27 03:32:43;;;;;;;11.57;8.40;;;0.20;99.90;;;;;;6222245;28;20716;-70
2021/04/27 03:35:45;;;;;;;10.30;8.43;;;0.20;99.90;;;;;;6231941;28;20649;-70
2021/04/27 03:38:47;;;;;;;10.40;8.43;;;0.20;99.90;;;;;;6213059;28;20705;-69
2021/04/27 03:41:49;;;;;;;17.53;11.27;;;0.20;99.90;;;;;;6230236;28;20260;-70
2021/04/27 03:44:51;;;;;;;13.60;10.23;;;0.10;99.90;;;;;;6213311;28;20228;-69
2021/04/27 03:47:53;;;;;;;16.20;11.10;;;0.10;99.90;;;;;;6245469;28;20251;-69
2021/04/27 03:50:56;;;;;;;20.57;12.07;;;0.00;99.90;;;;;;6236271;28;20227;-70
2021/04/27 03:54:25;;;;;;;15.50;11.67;;;0.00;99.90;;;;;;6248797;28;20265;-70
2021/04/27 03:57:27;;;;;;;15.50;11.70;;;0.00;99.90;;;;;;6236911;28;20297;-69
2021/04/27 04:00:35;;;;;;;15.23;11.60;;;0.10;99.90;;;;;;6255114;28;20238;-70
2021/04/27 04:03:44;;;;;;;14.60;10.90;;;0.10;99.90;;;;;;6213189;28;20824;-69
2021/04/27 04:06:48;;;;;;;18.90;11.83;;;0.10;99.90;;;;;;6231532;28;20231;-69
2021/04/27 04:10:25;;;;;;;18.80;13.57;;;0.10;99.90;;;;;;6229363;28;20240;-69
2021/04/27 04:13:27;;;;;;;17.07;12.63;;;0.10;99.90;;;;;;6230624;28;20262;-69
2021/04/27 04:16:29;;;;;;;18.40;13.00;;;0.10;99.90;;;;;;6231453;28;20227;-69
2021/04/27 04:19:32;;;;;;;20.53;14.13;;;0.10;99.90;;;;;;6237081;28;20245;-69
2021/04/27 04:22:37;;;;;;;17.93;12.57;;;0.10;99.90;;;;;;6251698;28;20313;-69
2021/04/27 04:25:43;;;;;;;16.13;12.73;;;0.10;99.90;;;;;;6262104;28;20256;-70
2021/04/27 04:28:45;;;;;;;17.50;13.47;;;0.20;99.90;;;;;;6279583;28;20304;-69
2021/04/27 04:31:47;;;;;;;16.10;13.03;;;0.20;99.90;;;;;;6234741;28;20231;-69
2021/04/27 04:35:25;;;;;;;19.83;13.93;;;0.30;99.90;;;;;;6241848;28;20261;-70
2021/04/27 04:39:04;;;;;;;18.30;12.83;;;0.30;99.90;;;;;;6158604;28;20832;-70
2021/04/27 04:42:24;;;;;;;15.60;11.97;;;0.40;99.90;;;;;;6279824;28;20234;-70
2021/04/27 04:45:46;;;;;;;13.93;11.53;;;0.50;99.90;;;;;;6279825;28;20234;-69
2021/04/27 04:49:07;;;;;;;16.20;11.80;;;0.50;99.90;;;;;;6214883;28;20240;-69
2021/04/27 04:52:21;;;;;;;13.70;11.00;;;0.60;99.90;;;;;;6229478;28;20243;-70
2021/04/27 04:56:01;;;;;;;16.27;12.27;;;0.70;99.90;;;;;;6209085;28;20731;-70
2021/04/27 04:59:09;;;;;;;12.87;10.37;;;0.80;99.90;;;;;;6216768;28;20247;-70
2021/04/27 05:02:11;;;;;;;19.70;12.30;;;0.80;99.90;;;;;;6236517;28;20322;-70
2021/04/27 05:05:32;;;;;;;15.33;11.60;;;0.90;99.90;;;;;;6254385;28;20243;-70
2021/04/27 05:08:54;;;;;;;16.80;11.90;;;1.00;99.90;;;;;;6239687;28;20247;-70
2021/04/27 05:12:16;;;;;;;15.53;11.90;;;1.00;99.90;;;;;;6253494;28;20220;-70
2021/04/27 05:15:23;;;;;;;17.47;12.47;;;1.00;99.90;;;;;;6255352;28;20639;-69
2021/04/27 05:18:25;;;;;;;17.17;12.57;;;1.10;99.90;;;;;;6236527;28;20231;-69
2021/04/27 05:21:27;;;;;;;17.60;13.20;;;1.10;99.90;;;;;;6254282;28;20361;-69
2021/04/27 05:24:30;;;;;;;16.27;12.93;;;1.20;99.90;;;;;;6236051;28;20227;-70
2021/04/27 05:27:44;;;;;;;17.07;13.90;;;1.20;99.90;;;;;;6236221;28;20227;-69
2021/04/27 05:30:46;;;;;;;18.63;13.50;;;1.30;99.90;;;;;;6233919;28;20231;-69
2021/04/27 05:33:48;;;;;;;20.57;14.03;;;1.30;99.90;;;;;;6228927;28;20231;-69
2021/04/27 05:36:49;;;;;;;21.27;14.70;;;1.40;99.90;;;;;;6211195;28;20605;-70
2021/04/27 05:39:52;;;;;;;16.40;13.47;;;1.50;99.90;;;;;;6215614;28;20238;-70
2021/04/27 05:42:55;;;;;;;20.53;14.03;;;1.60;99.90;;;;;;6215678;28;20239;-69
2021/04/27 05:45:57;;;;;;;18.87;14.13;;;1.70;99.90;;;;;;6234097;28;20232;-69
2021/04/27 05:48:59;;;;;;;18.47;14.03;;;1.80;99.90;;;;;;6231802;28;20230;-69
2021/04/27 05:52:01;;;;;;;19.67;14.03;;;1.90;99.90;;;;;;6233132;28;20651;-69
2021/04/27 05:55:05;;;;;;;20.73;14.00;;;2.00;99.90;;;;;;6233253;28;20231;-69
2021/04/27 05:58:08;;;;;;;15.67;12.73;;;2.10;99.90;;;;;;6238403;28;20232;-69
2021/04/27 06:01:12;;;;;;;17.60;12.80;;;2.20;99.90;;;;;;6222569;28;20716;-69
2021/04/27 06:04:13;;;;;;;17.10;13.20;;;2.30;99.90;;;;;;6240696;28;20238;-69
2021/04/27 06:07:16;;;;;;;16.13;12.10;;;2.40;99.90;;;;;;6239672;28;20246;-69
2021/04/27 06:10:17;;;;;;;19.13;13.67;;;2.50;99.90;;;;;;6240870;28;20231;-70
2021/04/27 06:13:19;;;;;;;17.87;14.03;;;2.60;99.90;;;;;;6240441;28;20749;-69
2021/04/27 06:16:21;;;;;;;18.70;13.73;;;2.70;99.90;;;;;;6241072;28;20607;-69
2021/04/27 06:19:25;;;;;;;18.03;13.93;;;2.80;99.90;;;;;;6257157;28;20262;-69
2021/04/27 06:22:27;;;;;;;21.47;14.73;;;3.00;99.90;;;;;;6241172;28;20227;-69
2021/04/27 06:25:29;;;;;;;17.37;13.37;;;3.10;99.90;;;;;;6257161;28;20235;-69
2021/04/27 06:28:31;;;;;;;15.87;12.60;;;3.40;99.90;;;;;;6256781;28;20231;-69
2021/04/27 06:31:34;;;;;;;17.90;12.63;;;3.60;99.90;;;;;;6250409;28;20239;-69
2021/04/27 06:34:36;;;;;;;19.87;14.20;;;3.80;99.90;;;;;;6232217;28;20258;-69
2021/04/27 06:37:38;;;;;;;21.17;13.90;;;4.00;99.90;;;;;;6233908;28;20235;-69
2021/04/27 06:40:40;;;;;;;17.37;12.97;;;4.30;99.90;;;;;;6232542;28;20243;-69
2021/04/27 06:43:41;;;;;;;16.13;13.47;;;4.70;99.90;;;;;;6232745;28;20244;-69
2021/04/27 06:46:43;;;;;;;16.03;12.20;;;5.00;99.90;;;;;;6238074;28;20236;-69
2021/04/27 06:49:46;;;;;;;16.10;12.60;;;5.30;99.90;;;;;;6237759;28;20235;-69
2021/04/27 06:52:48;;;;;;;16.53;12.23;;;5.70;99.90;;;;;;6238225;28;20252;-69
2021/04/27 06:55:50;;;;;;;19.30;12.77;;;6.00;99.90;;;;;;6256679;28;20236;-69
2021/04/27 06:58:53;;;;;;;16.23;11.67;;;6.30;99.90;;;;;;6223845;28;20663;-69
2021/04/27 07:02:00;;;;;;;20.13;12.27;;;6.50;99.90;;;;;;6245629;28;20257;-69
2021/04/27 07:05:04;;;;;;;15.27;11.07;;;6.70;99.90;;;;;;6232623;28;20365;-69
2021/04/27 07:08:05;;;;;;;15.23;11.07;;;7.00;99.90;;;;;;6231573;28;20609;-69
2021/04/27 07:11:08;;;;;;;11.03;9.57;;;7.30;99.90;;;;;;6231540;28;20317;-69
2021/04/27 07:14:11;;;;;;;13.07;10.03;;;7.60;99.90;;;;;;6232270;28;20234;-69
2021/04/27 07:17:13;;;;;;;15.53;10.27;;;7.90;99.90;;;;;;6230563;28;20286;-69
2021/04/27 07:20:16;;;;;;;15.57;10.97;;;8.20;99.90;;;;;;6225960;28;20247;-69
2021/04/27 07:23:18;;;;;;;14.10;10.30;;;8.30;99.90;;;;;;6237875;28;20234;-69
2021/04/27 07:26:20;;;;;;;13.87;9.97;;;8.40;99.90;;;;;;6255691;28;20320;-69
2021/04/27 07:29:22;;;;;;;15.20;10.57;;;8.70;99.90;;;;;;6256324;28;20232;-70
2021/04/27 07:32:24;;;;;;;13.07;9.47;;;8.80;99.90;;;;;;6230947;28;20618;-70
2021/04/27 07:35:27;;;;;;;16.87;10.30;;;8.90;99.90;;;;;;6230696;28;20234;-70
2021/04/27 07:38:29;;;;;;;14.63;10.30;;;8.90;99.90;;;;;;6230014;28;20323;-70
2021/04/27 07:41:31;;;;;;;14.30;10.10;;;8.90;99.90;;;;;;6232045;28;20285;-70
2021/04/27 07:44:33;;;;;;;15.47;10.40;;;9.20;99.90;;;;;;6230981;28;20240;-69
2021/04/27 07:47:35;;;;;;;10.57;9.27;;;9.40;99.90;;;;;;6230779;28;20231;-69
2021/04/27 07:50:38;;;;;;;13.50;9.93;;;9.50;99.90;;;;;;6231868;28;20246;-70
2021/04/27 07:53:40;;;;;;;12.97;10.60;;;9.80;99.90;;;;;;6228982;28;20710;-69
2021/04/27 07:56:42;;;;;;;18.07;10.93;;;10.00;99.90;;;;;;6229175;28;20238;-70
2021/04/27 07:59:44;;;;;;;10.93;9.10;;;10.20;99.90;;;;;;6231825;28;20295;-70
2021/04/27 08:02:46;;;;;;;10.73;9.20;;;10.30;99.90;;;;;;6212669;28;20244;-70
2021/04/27 08:05:48;;;;;;;12.63;10.07;;;10.50;99.00;;;;;;6206600;28;20243;-69
2021/04/27 08:08:50;;;;;;;11.57;9.60;;;10.70;98.90;;;;;;6205328;28;20719;-70
2021/04/27 08:11:54;;;;;;;14.17;10.60;;;10.60;97.70;;;;;;6205586;28;20238;-70
2021/04/27 08:14:56;;;;;;;14.57;10.63;;;10.50;98.00;;;;;;6205953;28;20233;-70
2021/04/27 08:18:00;;;;;;;13.33;10.77;;;10.60;99.40;;;;;;6204695;28;20714;-70
2021/04/27 08:21:06;;;;;;;11.90;9.83;;;10.50;98.20;;;;;;6224039;28;20283;-70
2021/04/27 08:24:10;;;;;;;13.10;9.40;;;10.50;98.60;;;;;;6230376;28;20698;-70
2021/04/27 08:27:32;;;;;;;12.37;10.60;;;10.70;98.80;;;;;;6230351;28;20244;-69
2021/04/27 08:30:34;;;;;;;11.77;10.47;;;10.80;97.30;;;;;;6228479;28;20240;-70
2021/04/27 08:33:37;;;;;;;16.13;11.80;;;10.70;97.80;;;;;;6212681;28;20240;-69
2021/04/27 08:36:39;;;;;;;13.57;10.73;;;10.60;97.50;;;;;;6229492;28;20367;-69
2021/04/27 08:39:44;;;;;;;11.97;10.53;;;10.80;97.60;;;;;;6229381;28;20237;-69
2021/04/27 08:42:48;;;;;;;15.60;10.67;;;10.80;97.90;;;;;;6230364;28;20233;-70
2021/04/27 08:45:50;;;;;;;11.97;10.17;;;10.90;98.90;;;;;;6227574;28;20607;-69
2021/04/27 08:48:53;;;;;;;12.60;10.77;;;11.00;96.90;;;;;;6228873;28;20244;-69
2021/04/27 08:51:55;;;;;;;13.80;10.50;;;11.00;96.10;;;;;;6231179;28;20589;-70
2021/04/27 08:55:08;;;;;;;10.87;9.77;;;11.10;97.00;;;;;;6230118;28;20250;-69
2021/04/27 08:58:13;;;;;;;12.90;10.23;;;11.40;97.00;;;;;;6228966;28;20227;-69
2021/04/27 09:01:15;;;;;;;12.80;9.73;;;11.60;95.10;;;;;;6237304;28;20240;-69
2021/04/27 09:04:40;;;;;;;15.47;9.93;;;11.60;94.40;;;;;;6205149;28;20721;-69
2021/04/27 09:07:43;;;;;;;13.80;11.03;;;11.70;93.90;;;;;;6203593;28;20240;-69
2021/04/27 09:10:46;;;;;;;13.40;10.67;;;11.40;94.00;;;;;;6207044;28;20251;-69
2021/04/27 09:14:12;;;;;;;12.07;10.80;;;11.30;95.60;;;;;;6207451;28;20386;-70
2021/04/27 09:17:14;;;;;;;13.73;11.67;;;11.10;94.40;;;;;;6210603;28;20323;-69
2021/04/27 09:20:16;;;;;;;13.17;9.93;;;10.90;94.70;;;;;;6223721;28;20234;-69
2021/04/27 09:23:19;;;;;;;16.40;11.20;;;10.90;96.40;;;;;;6232576;28;20377;-70
2021/04/27 09:26:23;;;;;;;13.73;10.80;;;11.10;94.70;;;;;;6235325;28;20238;-69
2021/04/27 09:29:34;;;;;;;13.37;10.87;;;11.30;94.30;;;;;;6235706;28;20234;-70
2021/04/27 09:32:42;;;;;;;14.37;9.50;;;11.30;95.00;;;;;;6234985;28;20271;-70
2021/04/27 09:35:50;;;;;;;17.20;10.67;;;11.20;94.30;;;;;;6234663;28;20730;-70
2021/04/27 09:38:53;;;;;;;12.43;9.83;;;11.20;95.10;;;;;;6218018;28;20242;-70
2021/04/27 09:42:01;;;;;;;14.57;10.40;;;11.40;94.70;;;;;;6233308;28;20233;-69
2021/04/27 09:45:07;;;;;;;13.10;10.50;;;11.70;93.40;;;;;;6231313;28;20327;-69
2021/04/27 09:48:09;;;;;;;15.07;10.60;;;12.20;93.20;;;;;;6234045;28;20249;-69
2021/04/27 09:51:15;;;;;;;12.50;10.60;;;12.60;91.90;;;;;;6233370;28;20223;-69
2021/04/27 09:55:16;;;;;;;10.70;8.87;;;12.70;90.90;;;;;;6233622;28;20228;-69
2021/04/27 09:58:18;;;;;;;9.87;8.63;;;13.30;90.50;;;;;;6232654;28;20243;-69
2021/04/27 10:01:20;;;;;;;12.30;8.93;;;13.40;85.30;;;;;;6227580;28;20248;-69
2021/04/27 10:04:27;;;;;;;9.73;8.73;;;13.70;83.60;;;;;;6207760;28;20240;-69
2021/04/27 10:07:35;;;;;;;13.27;9.53;;;14.00;80.70;;;;;;6210519;28;20373;-69
2021/04/27 10:10:38;;;;;;;9.53;8.40;;;14.10;79.00;;;;;;6210113;28;20241;-69
2021/04/27 10:13:41;;;;;;;10.83;8.73;;;14.10;78.20;;;;;;6209110;28;20328;-69
2021/04/27 10:16:43;;;;;;;10.77;8.10;;;13.80;71.70;;;;;;6208645;28;20245;-69
2021/04/27 10:19:46;;;;;;;8.23;7.23;;;13.70;74.60;;;;;;6217511;28;20332;-69
2021/04/27 10:22:49;;;;;;;10.63;8.10;;;13.60;70.20;;;;;;6233043;28;20286;-69
2021/04/27 10:25:53;;;;;;;8.07;7.27;;;13.40;69.60;;;;;;6232926;28;20660;-69
2021/04/27 10:29:00;;;;;;;8.93;7.00;;;13.40;72.60;;;;;;6232900;28;20327;-69
2021/04/27 10:32:23;;;;;;;8.20;6.87;;;13.50;69.80;;;;;;6253869;28;20238;-69
2021/04/27 10:35:25;;;;;;;7.83;7.03;;;13.70;65.90;;;;;;6258301;28;20271;-69
2021/04/27 10:38:42;;;;;;;7.80;6.97;;;13.60;66.90;;;;;;6224325;28;20237;-69
2021/04/27 10:41:52;;;;;;;8.17;7.23;;;13.40;68.00;;;;;;6239226;28;20234;-70
2021/04/27 10:44:59;;;;;;;9.93;7.13;;;13.60;69.30;;;;;;6256384;28;20241;-69
2021/04/27 10:48:03;;;;;;;9.63;6.43;;;13.80;68.90;;;;;;6256896;28;20231;-69
2021/04/27 10:51:20;;;;;;;8.63;7.10;;;13.80;65.70;;;;;;6256804;28;20225;-69
2021/04/27 10:54:32;;;;;;;9.53;7.50;;;13.70;65.20;;;;;;6256452;28;20239;-69
2021/04/27 10:57:47;;;;;;;9.70;7.73;;;13.30;63.70;;;;;;6255638;28;20285;-69
2021/04/27 11:00:49;;;;;;;8.07;6.73;;;13.30;65.50;;;;;;6253334;28;20236;-69
2021/04/27 11:03:53;;;;;;;7.23;6.20;;;13.40;65.30;;;;;;6231754;28;20241;-69
2021/04/27 11:07:28;;;;;;;9.17;7.40;;;13.70;66.60;;;;;;6230767;28;20267;-69
2021/04/27 11:10:31;;;;;;;7.37;6.67;;;14.00;63.10;;;;;;6123760;28;20243;-69
2021/04/27 11:13:38;;;;;;;8.90;6.60;;;14.20;64.60;;;;;;6140736;28;20246;-69
2021/04/27 11:16:48;;;;;;;9.23;7.40;;;14.50;62.40;;;;;;6141204;28;20734;-69
2021/04/27 11:19:50;;;;;;;10.97;7.87;;;14.60;62.00;;;;;;6147928;28;20761;-69
2021/04/27 11:22:52;;;;;;;12.47;8.50;;;14.60;59.60;;;;;;6115221;29;20244;-69
2021/04/27 11:25:54;;;;;;;9.53;7.90;;;14.40;59.50;;;;;;6132099;28;20267;-69
2021/04/27 11:28:59;;;;;;;9.07;7.30;;;14.40;60.20;;;;;;6156610;28;20252;-69
2021/04/27 11:32:08;;;;;;;11.70;8.67;;;14.40;59.40;;;;;;6155660;28;20244;-70
2021/04/27 11:35:22;;;;;;;11.10;7.97;;;14.40;59.00;;;;;;6138142;28;20640;-69
2021/04/27 11:38:26;;;;;;;9.03;7.30;;;14.40;59.70;;;;;;6155162;28;20379;-69
2021/04/27 11:41:48;;;;;;;8.83;8.00;;;14.80;60.90;;;;;;6139516;28;20254;-69
2021/04/27 11:44:58;;;;;;;10.57;8.50;;;15.00;60.10;;;;;;6148207;28;20243;-69
2021/04/27 11:48:02;;;;;;;9.93;7.80;;;14.90;58.30;;;;;;6223587;28;20611;-69
2021/04/27 11:51:04;;;;;;;8.87;7.53;;;14.70;58.10;;;;;;6229783;28;20642;-69
2021/04/27 11:54:06;;;;;;;9.07;6.80;;;14.60;57.80;;;;;;6213868;28;20208;-69
2021/04/27 11:57:18;;;;;;;10.67;7.33;;;15.00;56.80;;;;;;6230608;28;20719;-69
2021/04/27 12:00:31;;;;;;;10.97;7.80;;;15.00;56.30;;;;;;6232654;28;20242;-70
2021/04/27 12:03:42;;;;;;;11.07;7.20;;;15.30;56.50;;;;;;6205763;28;20334;-69
2021/04/27 12:07:01;;;;;;;9.03;7.03;;;16.00;57.50;;;;;;6206612;28;20239;-69
2021/04/27 12:10:05;;;;;;;9.67;7.87;;;16.70;56.80;;;;;;6206443;28;20238;-69
2021/04/27 12:13:21;;;;;;;10.23;7.87;;;16.80;53.40;;;;;;6203621;28;20604;-69
2021/04/27 12:16:28;;;;;;;9.33;8.07;;;16.60;52.40;;;;;;6206614;28;20259;-69
2021/04/27 12:19:30;;;;;;;11.03;8.43;;;16.10;53.10;;;;;;6212085;28;20259;-69
2021/04/27 12:22:33;;;;;;;8.90;6.83;;;16.00;53.80;;;;;;6239141;28;20234;-70
2021/04/27 12:25:35;;;;;;;9.50;7.27;;;16.70;54.70;;;;;;6253049;28;20238;-70
2021/04/27 12:28:37;;;;;;;9.47;7.27;;;17.00;53.30;;;;;;6252695;28;20233;-69
2021/04/27 12:31:39;;;;;;;8.63;7.73;;;17.10;52.40;;;;;;6236603;28;20240;-69
2021/04/27 12:35:05;;;;;;;9.37;6.67;;;16.80;52.00;;;;;;6206224;28;20236;-69
2021/04/27 12:38:11;;;;;;;7.53;6.60;;;16.80;52.60;;;;;;6206258;28;20323;-69
2021/04/27 12:41:13;;;;;;;8.33;6.90;;;17.00;50.90;;;;;;6207905;28;20236;-69
2021/04/27 12:44:35;;;;;;;10.10;7.20;;;17.30;49.50;;;;;;6205907;28;20240;-69
2021/04/27 12:47:39;;;;;;;7.83;6.33;;;17.60;49.80;;;;;;6222366;28;20231;-69
2021/04/27 12:50:53;;;;;;;8.03;7.20;;;17.50;48.60;;;;;;6235124;28;20289;-69
2021/04/27 12:53:55;;;;;;;8.30;6.90;;;17.20;49.00;;;;;;6235092;28;20243;-69
2021/04/27 12:57:09;;;;;;;7.73;6.97;;;17.00;49.30;;;;;;6234165;28;20243;-69
2021/04/27 13:00:14;;;;;;;8.70;6.93;;;16.80;49.60;;;;;;6233654;28;20605;-69
2021/04/27 13:03:18;;;;;;;8.87;7.20;;;16.60;50.60;;;;;;6235492;28;20668;-69
2021/04/27 13:06:42;;;;;;;12.27;7.73;;;16.30;51.70;;;;;;6234146;28;20386;-69
2021/04/27 13:09:44;;;;;;;11.90;8.30;;;16.80;50.30;;;;;;6235218;28;20239;-69
2021/04/27 13:12:47;;;;;;;9.03;7.40;;;17.20;50.40;;;;;;6233795;28;20258;-70
2021/04/27 13:15:57;;;;;;;12.33;7.80;;;17.50;48.60;;;;;;6235110;28;20235;-69
2021/04/27 13:19:04;;;;;;;10.97;8.30;;;17.50;48.70;;;;;;6235589;28;20241;-69
2021/04/27 13:22:12;;;;;;;9.73;7.33;;;17.20;49.90;;;;;;6237785;28;20244;-67
2021/04/27 13:25:17;;;;;;;10.00;8.20;;;17.00;50.00;;;;;;6234074;28;20693;-68
2021/04/27 13:28:20;;;;;;;10.37;7.80;;;17.20;49.40;;;;;;6233094;28;20323;-69
2021/04/27 13:31:25;;;;;;;9.00;6.87;;;16.80;49.20;;;;;;6247119;28;20238;-68
2021/04/27 13:34:27;;;;;;;11.93;8.43;;;16.60;49.70;;;;;;6255386;28;20246;-68
2021/04/27 13:37:29;;;;;;;11.37;8.97;;;16.70;50.00;;;;;;6233260;28;20239;-68
2021/04/27 13:40:35;;;;;;;11.90;8.67;;;16.90;48.80;;;;;;6250230;28;20244;-69
2021/04/27 13:43:41;;;;;;;14.03;8.77;;;16.90;49.20;;;;;;6241871;28;20219;-69
2021/04/27 13:46:43;;;;;;;10.90;8.13;;;16.80;50.00;;;;;;6258050;28;20227;-69
2021/04/27 13:49:45;;;;;;;11.17;8.50;;;17.10;49.80;;;;;;6259348;28;20292;-69
2021/04/27 13:52:47;;;;;;;10.03;7.27;;;17.50;48.70;;;;;;6239569;28;20258;-68
2021/04/27 13:55:49;;;;;;;7.67;6.90;;;17.70;48.40;;;;;;6258105;28;20578;-69
2021/04/27 13:58:51;;;;;;;9.57;8.53;;;17.90;47.40;;;;;;6254572;28;20226;-68
2021/04/27 14:01:53;;;;;;;10.00;7.43;;;17.90;47.10;;;;;;6253967;28;20269;-69
2021/04/27 14:04:55;;;;;;;9.70;7.90;;;18.20;48.40;;;;;;6252709;28;20231;-69
2021/04/27 14:07:58;;;;;;;9.27;7.73;;;18.60;47.90;;;;;;6238283;28;20367;-68
2021/04/27 14:11:00;;;;;;;10.53;8.27;;;19.10;47.30;;;;;;6238955;28;20239;-68
2021/04/27 14:14:02;;;;;;;11.40;8.10;;;18.70;46.80;;;;;;6239421;28;20235;-69
2021/04/27 14:17:04;;;;;;;7.93;6.23;;;18.10;47.70;;;;;;6238124;28;20243;-69
2021/04/27 14:20:08;;;;;;;9.13;7.23;;;17.60;47.90;;;;;;6257280;28;20243;-69
2021/04/27 14:23:12;;;;;;;12.33;7.60;;;17.20;48.30;;;;;;6232192;28;20244;-69
2021/04/27 14:26:14;;;;;;;13.07;8.37;;;16.90;49.00;;;;;;6220152;28;20235;-69
2021/04/27 14:29:16;;;;;;;9.50;7.53;;;16.90;49.50;;;;;;6257737;28;20245;-69
2021/04/27 14:32:18;;;;;;;7.30;6.30;;;16.70;48.70;;;;;;6257740;28;20234;-69
2021/04/27 14:35:25;;;;;;;9.17;7.40;;;16.60;49.40;;;;;;6239834;28;20291;-69
2021/04/27 14:38:27;;;;;;;9.83;7.87;;;16.30;48.60;;;;;;6239370;28;20676;-68
2021/04/27 14:41:42;;;;;;;9.03;6.93;;;15.70;49.70;;;;;;6231293;28;20235;-69
2021/04/27 14:44:45;;;;;;;10.43;7.23;;;15.30;50.60;;;;;;6241581;28;20241;-69
2021/04/27 14:47:49;;;;;;;7.40;6.63;;;14.90;51.00;;;;;;6241028;28;20235;-69
2021/04/27 14:50:51;;;;;;;9.13;6.90;;;14.80;51.70;;;;;;6256989;28;20256;-69
2021/04/27 14:53:53;;;;;;;13.03;8.17;;;14.60;51.70;;;;;;6230562;28;20236;-69
2021/04/27 14:56:55;;;;;;;11.77;6.70;;;14.40;52.50;;;;;;6239427;28;20223;-69
2021/04/27 14:59:56;;;;;;;8.00;5.87;;;14.60;53.40;;;;;;6255871;28;20231;-69
2021/04/27 15:02:58;;;;;;;8.17;5.83;;;15.00;52.10;;;;;;6235843;28;20242;-69
2021/04/27 15:06:01;;;;;;;11.33;6.57;;;15.20;51.90;;;;;;6252162;28;20235;-68
2021/04/27 15:09:04;;;;;;;7.37;5.80;;;15.20;51.70;;;;;;6237662;28;20210;-68
2021/04/27 15:12:07;;;;;;;9.17;6.53;;;15.30;52.30;;;;;;6252568;28;20715;-68
2021/04/27 15:15:12;;;;;;;9.37;6.43;;;15.40;51.30;;;;;;6238278;28;20211;-68
2021/04/27 15:18:14;;;;;;;7.47;5.90;;;15.40;51.10;;;;;;6256728;28;20199;-68
2021/04/27 15:21:16;;;;;;;6.20;5.20;;;15.20;51.20;;;;;;6237756;28;20655;-68
2021/04/27 15:24:19;;;;;;;7.80;5.87;;;15.30;51.30;;;;;;6238881;28;20293;-70
2021/04/27 15:27:21;;;;;;;7.57;6.07;;;15.30;51.70;;;;;;6250671;28;20243;-68
2021/04/27 15:30:25;;;;;;;7.07;5.60;;;15.20;51.80;;;;;;6254293;28;20317;-68
2021/04/27 15:33:34;;;;;;;8.50;6.10;;;15.10;52.00;;;;;;6322688;27;20646;-67
2021/04/27 15:36:37;;;;;;;6.00;5.40;;;15.10;52.40;;;;;;6292896;28;20256;-68
2021/04/27 15:39:39;;;;;;;6.77;5.00;;;15.10;51.80;;;;;;6271928;28;20231;-68
2021/04/27 15:42:42;;;;;;;6.13;4.53;;;16.00;51.60;;;;;;6252283;28;20321;-68
2021/04/27 15:45:44;;;;;;;6.60;4.53;;;17.10;49.80;;;;;;6266446;28;20223;-68
2021/04/27 15:48:46;;;;;;;6.80;4.77;;;17.10;49.00;;;;;;6273792;28;20368;-68
2021/04/27 15:51:49;;;;;;;6.33;5.70;;;16.90;49.20;;;;;;6274941;28;20376;-68
2021/04/27 15:54:52;;;;;;;6.80;5.60;;;16.40;49.10;;;;;;6274232;28;20594;-68
2021/04/27 15:57:54;;;;;;;6.40;5.13;;;15.90;50.70;;;;;;6277196;28;20721;-68
2021/04/27 16:00:57;;;;;;;6.27;5.23;;;15.60;51.50;;;;;;6278040;28;20225;-68
2021/04/27 16:03:59;;;;;;;12.07;5.63;;;15.20;51.80;;;;;;6300387;28;20232;-68
2021/04/27 16:07:01;;;;;;;7.13;5.93;;;14.90;52.30;;;;;;6282571;28;20773;-68